Time;durP1;ratioP1;P1;durP2;ratioP2;P2;SDS_P1;SDS_P2;PMS_P1;PMS_P2;Temp;Humidity;BMP_temperature;BMP_pressure;BME280_temperature;BME280_humidity;BME280_pressure;Samples;Min_cycle;Max_cycle;Signal;HPM_P1;HPM_P2
2022/06/01 00:01:50;;;;;;;2.65;1.80;;;13.40;82.60;;;;;;4204179;28;20059;-74
2022/06/01 00:03:51;;;;;;;2.13;1.17;;;13.40;82.70;;;;;;4216303;28;20060;-74
2022/06/01 00:05:53;;;;;;;2.70;1.63;;;13.40;83.00;;;;;;4208436;28;20080;-75
2022/06/01 00:07:55;;;;;;;1.27;1.17;;;13.40;83.00;;;;;;4215091;28;20708;-75
2022/06/01 00:09:57;;;;;;;1.42;1.20;;;13.40;83.00;;;;;;4211141;28;20057;-75
2022/06/01 00:11:59;;;;;;;3.10;1.20;;;13.40;83.00;;;;;;4217276;28;20048;-74
2022/06/01 00:14:00;;;;;;;1.70;1.60;;;13.40;83.10;;;;;;4214460;28;20052;-74
2022/06/01 00:16:03;;;;;;;2.58;1.73;;;13.40;83.20;;;;;;4209990;28;20138;-74
2022/06/01 00:18:04;;;;;;;3.85;1.42;;;13.40;83.00;;;;;;4213727;28;20127;-74
2022/06/01 00:20:07;;;;;;;1.90;1.58;;;13.50;82.60;;;;;;4207435;28;20793;-74
2022/06/01 00:22:11;;;;;;;2.55;1.52;;;13.50;82.80;;;;;;4206865;28;20068;-75
2022/06/01 00:24:13;;;;;;;6.10;2.05;;;13.40;82.50;;;;;;4213233;28;20091;-74
2022/06/01 00:26:15;;;;;;;2.63;1.92;;;13.30;82.50;;;;;;4209755;28;20817;-75
2022/06/01 00:28:17;;;;;;;2.47;1.63;;;13.30;82.90;;;;;;4216707;28;20150;-75
2022/06/01 00:30:20;;;;;;;3.83;1.45;;;13.30;83.30;;;;;;4222542;28;20870;-75
2022/06/01 00:32:22;;;;;;;3.17;1.65;;;13.20;83.30;;;;;;4217487;28;20159;-75
2022/06/01 00:34:24;;;;;;;1.50;1.40;;;13.20;84.30;;;;;;4218511;28;20063;-75
2022/06/01 00:36:26;;;;;;;1.90;1.73;;;13.20;83.40;;;;;;4212978;28;20049;-75
2022/06/01 00:38:28;;;;;;;1.75;1.20;;;13.20;83.90;;;;;;4217304;28;20053;-75
2022/06/01 00:40:30;;;;;;;1.70;1.60;;;13.20;83.10;;;;;;4214487;28;20052;-75
2022/06/01 00:42:34;;;;;;;2.65;1.83;;;13.20;83.60;;;;;;4209995;28;20056;-74
2022/06/01 00:44:36;;;;;;;1.65;1.52;;;13.10;83.50;;;;;;4212440;28;20351;-74
2022/06/01 00:46:38;;;;;;;2.47;1.40;;;13.10;83.90;;;;;;4205916;28;20068;-75
2022/06/01 00:48:45;;;;;;;2.75;1.38;;;13.10;84.30;;;;;;4215274;28;20614;-74
2022/06/01 00:50:48;;;;;;;2.83;1.50;;;13.10;84.60;;;;;;4201535;28;20088;-75
2022/06/01 00:52:57;;;;;;;3.22;1.55;;;13.10;84.00;;;;;;4210361;28;20064;-75
2022/06/01 00:54:59;;;;;;;1.25;1.15;;;13.10;84.20;;;;;;4207045;28;20806;-75
2022/06/01 00:57:06;;;;;;;1.73;1.30;;;13.20;84.00;;;;;;4219120;28;20052;-75
2022/06/01 00:59:12;;;;;;;1.52;1.42;;;13.20;83.40;;;;;;4242402;28;20062;-75
2022/06/01 01:01:18;;;;;;;2.35;1.67;;;13.20;83.30;;;;;;4211351;28;20175;-75
2022/06/01 01:03:25;;;;;;;1.50;1.33;;;13.20;82.90;;;;;;4213814;28;20052;-75
2022/06/01 01:05:27;;;;;;;3.22;1.60;;;13.20;82.80;;;;;;4209656;28;20045;-75
2022/06/01 01:07:29;;;;;;;3.17;1.30;;;13.30;82.50;;;;;;4211931;28;20052;-75
2022/06/01 01:09:31;;;;;;;1.50;1.10;;;13.30;81.10;;;;;;4221873;28;20756;-75
2022/06/01 01:11:36;;;;;;;1.38;1.27;;;13.30;81.30;;;;;;4208920;28;20064;-75
2022/06/01 01:13:40;;;;;;;2.42;1.30;;;13.40;80.20;;;;;;4217045;28;20067;-75
2022/06/01 01:15:52;;;;;;;3.85;1.40;;;13.50;80.00;;;;;;4207764;28;20072;-74
2022/06/01 01:17:54;;;;;;;2.90;1.77;;;13.50;79.90;;;;;;4210612;28;20882;-75
2022/06/01 01:19:56;;;;;;;2.20;1.10;;;13.50;79.90;;;;;;4208218;28;20859;-75
2022/06/01 01:22:14;;;;;;;2.88;1.23;;;13.60;79.90;;;;;;4205749;28;20791;-74
2022/06/01 01:24:40;;;;;;;1.90;1.35;;;13.60;79.90;;;;;;4202302;28;20171;-74
2022/06/01 01:26:48;;;;;;;1.50;1.25;;;13.70;79.90;;;;;;4204643;28;20096;-75
2022/06/01 01:28:50;;;;;;;5.20;1.70;;;13.70;79.80;;;;;;4207036;28;20164;-74
2022/06/01 01:31:13;;;;;;;4.80;1.80;;;13.70;79.80;;;;;;4210935;28;20084;-74
2022/06/01 01:33:26;;;;;;;1.52;1.10;;;13.70;79.80;;;;;;4200023;28;20135;-74
2022/06/01 01:35:28;;;;;;;4.70;1.10;;;13.70;79.90;;;;;;4211936;28;20063;-76
2022/06/01 01:37:30;;;;;;;1.58;1.17;;;13.60;80.20;;;;;;4213136;28;20060;-76
2022/06/01 01:39:35;;;;;;;1.95;1.40;;;13.60;80.60;;;;;;4209665;28;20092;-73
2022/06/01 01:41:48;;;;;;;1.48;1.20;;;13.60;80.90;;;;;;4208849;28;20065;-76
2022/06/01 01:44:15;;;;;;;2.05;1.10;;;13.50;81.30;;;;;;4210530;28;20061;-76
2022/06/01 01:46:17;;;;;;;2.78;1.25;;;13.50;81.30;;;;;;4199150;28;20075;-73
2022/06/01 01:48:19;;;;;;;3.78;1.92;;;13.50;81.80;;;;;;4207997;28;20138;-76
2022/06/01 01:50:22;;;;;;;3.90;1.77;;;13.50;81.90;;;;;;4210797;28;20605;-75
2022/06/01 01:52:24;;;;;;;2.03;1.48;;;13.50;82.00;;;;;;4205283;28;20894;-76
2022/06/01 01:55:04;;;;;;;1.50;1.40;;;13.50;81.90;;;;;;4209803;28;20182;-75
2022/06/01 01:57:24;;;;;;;3.88;1.70;;;13.50;81.80;;;;;;4210285;28;20135;-76
2022/06/01 01:59:57;;;;;;;1.40;1.20;;;13.50;81.80;;;;;;4207004;28;20097;-76
2022/06/01 02:02:02;;;;;;;1.85;1.25;;;13.40;81.90;;;;;;4206665;28;20779;-76
2022/06/01 02:06:03;;;;;;;2.28;1.65;;;13.40;82.70;;;;;;4215835;28;20049;-76
2022/06/01 02:06:41;;;;;;;1.27;1.17;;;13.40;82.10;;;;;;4209326;28;20057;-75
2022/06/01 02:08:48;;;;;;;1.40;1.30;;;13.30;82.50;;;;;;4205734;28;20151;-74
2022/06/01 02:13:17;;;;;;;1.45;1.35;;;13.30;82.90;;;;;;4208538;28;20048;-75
2022/06/01 02:15:25;;;;;;;3.78;1.73;;;13.20;83.30;;;;;;4210060;28;20061;-75
2022/06/01 02:17:37;;;;;;;1.58;1.40;;;13.20;83.60;;;;;;4206433;28;20797;-76
2022/06/01 02:19:42;;;;;;;3.38;1.60;;;13.20;83.90;;;;;;4207213;28;20176;-73
2022/06/01 02:21:44;;;;;;;4.47;1.88;;;13.10;84.00;;;;;;4212873;28;20092;-75
2022/06/01 02:23:48;;;;;;;2.33;1.48;;;13.10;84.20;;;;;;4205952;28;20061;-76
2022/06/01 02:25:52;;;;;;;1.75;1.33;;;13.10;84.40;;;;;;4209351;28;20057;-74
2022/06/01 02:27:57;;;;;;;2.05;1.30;;;13.10;84.80;;;;;;4210360;28;20155;-73
2022/06/01 02:30:08;;;;;;;2.10;1.73;;;13.00;85.10;;;;;;4205599;28;20092;-74
2022/06/01 02:32:11;;;;;;;2.53;1.70;;;13.00;85.30;;;;;;4207846;28;20067;-74
2022/06/01 02:34:13;;;;;;;1.40;1.30;;;12.90;85.60;;;;;;4210692;28;20059;-74
2022/06/01 02:36:17;;;;;;;1.50;1.40;;;12.90;85.70;;;;;;4214990;28;20063;-74
2022/06/01 02:38:29;;;;;;;2.25;1.63;;;12.90;86.00;;;;;;4217713;28;20045;-74
2022/06/01 02:40:31;;;;;;;2.53;1.60;;;12.90;86.40;;;;;;4215507;28;20072;-74
2022/06/01 02:42:33;;;;;;;3.17;1.80;;;12.80;86.40;;;;;;4216707;28;20056;-74
2022/06/01 02:44:35;;;;;;;2.63;1.55;;;12.80;86.80;;;;;;4205227;28;20142;-74
2022/06/01 02:46:36;;;;;;;1.98;1.50;;;12.80;87.30;;;;;;4212999;28;20863;-74
2022/06/01 02:48:43;;;;;;;2.50;1.45;;;12.70;87.40;;;;;;4208313;28;20068;-74
2022/06/01 02:50:45;;;;;;;2.95;1.50;;;12.80;87.70;;;;;;4214368;28;20060;-74
2022/06/01 02:52:47;;;;;;;2.80;1.65;;;12.70;88.00;;;;;;4205682;28;21032;-74
2022/06/01 02:54:49;;;;;;;2.58;1.30;;;12.70;88.20;;;;;;4209192;28;20898;-74
2022/06/01 02:56:51;;;;;;;2.03;1.63;;;12.70;88.40;;;;;;4214153;28;20094;-74
2022/06/01 02:58:52;;;;;;;2.63;1.92;;;12.70;88.60;;;;;;4213331;28;20768;-74
2022/06/01 03:00:54;;;;;;;2.72;1.55;;;12.70;89.10;;;;;;4198423;28;20057;-74
2022/06/01 03:02:59;;;;;;;1.40;1.30;;;12.70;89.30;;;;;;4205763;28;20056;-74
2022/06/01 03:05:01;;;;;;;2.17;1.50;;;12.70;89.60;;;;;;4208994;28;20834;-73
2022/06/01 03:07:03;;;;;;;4.72;1.75;;;12.60;89.80;;;;;;4213519;28;21121;-73
2022/06/01 03:09:11;;;;;;;2.35;1.50;;;12.60;90.00;;;;;;4213233;28;20060;-74
2022/06/01 03:11:13;;;;;;;1.80;1.45;;;12.60;90.20;;;;;;4205592;28;20067;-73
2022/06/01 03:13:15;;;;;;;3.42;2.28;;;12.60;90.40;;;;;;4212557;28;20060;-74
2022/06/01 03:15:20;;;;;;;1.58;1.48;;;12.60;90.50;;;;;;4207268;28;20045;-74
2022/06/01 03:17:21;;;;;;;2.58;1.85;;;12.50;90.70;;;;;;4205834;28;20061;-74
2022/06/01 03:19:24;;;;;;;4.13;1.50;;;12.50;90.80;;;;;;4207169;28;20135;-74
2022/06/01 03:21:26;;;;;;;2.20;1.23;;;12.50;91.00;;;;;;4214748;28;20049;-74
2022/06/01 03:23:28;;;;;;;3.55;2.33;;;12.50;91.20;;;;;;4214916;28;20057;-74
2022/06/01 03:25:30;;;;;;;1.80;1.70;;;12.50;91.50;;;;;;4202713;28;20111;-74
2022/06/01 03:27:31;;;;;;;2.53;2.13;;;12.40;91.60;;;;;;4201541;28;20142;-74
2022/06/01 03:29:34;;;;;;;1.65;1.55;;;12.40;91.80;;;;;;4207207;28;20631;-73
2022/06/01 03:31:35;;;;;;;3.22;1.75;;;12.40;92.00;;;;;;4208198;28;20054;-74
2022/06/01 03:33:37;;;;;;;3.60;2.30;;;12.30;92.00;;;;;;4210709;28;21210;-73
2022/06/01 03:35:40;;;;;;;1.73;1.63;;;12.30;92.10;;;;;;4206747;28;20860;-74
2022/06/01 03:37:41;;;;;;;3.50;1.58;;;12.30;92.20;;;;;;4205310;28;20962;-74
2022/06/01 03:39:43;;;;;;;2.10;1.88;;;12.30;92.30;;;;;;4212515;28;20840;-74
2022/06/01 03:41:45;;;;;;;3.92;1.75;;;12.30;92.20;;;;;;4210998;28;20060;-73
2022/06/01 03:46:07;;;;;;;1.85;1.73;;;12.30;92.30;;;;;;4216328;28;20063;-74
2022/06/01 03:48:09;;;;;;;2.65;1.77;;;12.30;92.40;;;;;;4206065;28;20061;-74
2022/06/01 03:50:12;;;;;;;2.42;1.92;;;12.30;92.50;;;;;;4214069;28;20156;-74
2022/06/01 03:52:14;;;;;;;5.07;1.80;;;12.30;92.60;;;;;;4214379;28;20763;-74
2022/06/01 03:54:16;;;;;;;2.58;2.00;;;12.30;92.70;;;;;;4203387;28;20171;-74
2022/06/01 03:56:18;;;;;;;3.28;1.58;;;12.30;92.80;;;;;;4215310;28;20067;-75
2022/06/01 03:58:22;;;;;;;2.55;1.55;;;12.30;93.00;;;;;;4213860;28;20052;-74
2022/06/01 04:00:27;;;;;;;4.50;1.92;;;12.30;93.10;;;;;;4210108;28;20056;-74
2022/06/01 04:02:29;;;;;;;4.75;1.40;;;12.30;93.30;;;;;;4209389;28;20067;-74
2022/06/01 04:04:31;;;;;;;2.58;1.73;;;12.30;93.30;;;;;;4207417;28;21634;-74
2022/06/01 04:06:32;;;;;;;2.00;1.83;;;12.40;93.30;;;;;;4205398;28;20053;-74
2022/06/01 04:08:34;;;;;;;2.40;1.67;;;12.40;93.10;;;;;;4209728;28;20184;-74
2022/06/01 04:10:39;;;;;;;1.50;1.40;;;12.40;93.00;;;;;;4204834;28;20061;-74
2022/06/01 04:12:40;;;;;;;2.95;1.80;;;12.50;93.00;;;;;;4212175;28;20057;-74
2022/06/01 04:14:42;;;;;;;4.93;1.98;;;12.50;92.90;;;;;;4204461;28;20871;-74
2022/06/01 04:16:44;;;;;;;4.70;2.10;;;12.50;92.90;;;;;;4204829;28;20056;-74
2022/06/01 04:18:46;;;;;;;2.55;1.73;;;12.50;93.10;;;;;;4204266;28;20056;-74
2022/06/01 04:20:51;;;;;;;2.03;1.63;;;12.50;93.00;;;;;;4207603;28;20057;-74
2022/06/01 04:22:54;;;;;;;2.22;1.88;;;12.50;93.00;;;;;;4202807;28;20096;-74
2022/06/01 04:24:56;;;;;;;1.80;1.70;;;12.60;93.10;;;;;;4217731;28;20103;-74
2022/06/01 04:26:57;;;;;;;1.85;1.75;;;12.60;93.00;;;;;;4205328;28;20089;-74
2022/06/01 04:28:59;;;;;;;4.93;2.22;;;12.60;93.00;;;;;;4210638;28;20060;-74
2022/06/01 04:31:01;;;;;;;2.95;1.65;;;12.60;93.10;;;;;;4213873;28;20156;-74
2022/06/01 04:33:04;;;;;;;1.88;1.73;;;12.70;92.90;;;;;;4214181;28;20064;-74
2022/06/01 04:35:07;;;;;;;1.70;1.50;;;12.80;92.70;;;;;;4202101;28;20056;-74
2022/06/01 04:37:09;;;;;;;3.22;2.08;;;12.80;92.60;;;;;;4213449;28;20867;-74
2022/06/01 04:39:10;;;;;;;2.45;1.63;;;12.90;92.40;;;;;;4212933;28;20064;-74
2022/06/01 04:41:12;;;;;;;3.10;2.30;;;12.90;92.30;;;;;;4211988;28;20056;-74
2022/06/01 04:43:17;;;;;;;2.08;1.88;;;12.90;92.30;;;;;;4243391;22;20053;-73
2022/06/01 04:45:26;;;;;;;1.63;1.52;;;13.00;92.20;;;;;;4212178;28;20103;-73
2022/06/01 04:47:27;;;;;;;3.85;2.10;;;13.00;92.40;;;;;;4216705;28;20056;-74
2022/06/01 04:49:29;;;;;;;4.93;2.25;;;13.10;92.30;;;;;;4207846;28;20671;-72
2022/06/01 04:51:31;;;;;;;2.80;1.75;;;13.10;92.20;;;;;;4213381;28;20130;-72
2022/06/01 04:53:33;;;;;;;2.85;2.20;;;13.20;92.10;;;;;;4209185;28;20068;-73
2022/06/01 04:55:35;;;;;;;1.95;1.80;;;13.20;92.00;;;;;;4200361;28;20087;-74
2022/06/01 04:57:37;;;;;;;5.85;2.15;;;13.30;92.00;;;;;;4202848;28;20057;-74
2022/06/01 04:59:38;;;;;;;7.75;1.80;;;13.30;91.90;;;;;;4196137;28;20219;-73
2022/06/01 05:01:40;;;;;;;9.38;3.00;;;13.40;92.00;;;;;;4197468;28;20087;-73
2022/06/01 05:03:42;;;;;;;7.03;2.65;;;13.40;92.10;;;;;;4201431;28;20102;-74
2022/06/01 05:05:44;;;;;;;10.40;2.67;;;13.50;92.00;;;;;;4199168;28;20184;-73
2022/06/01 05:07:45;;;;;;;4.20;2.00;;;13.60;91.90;;;;;;4199344;28;20835;-73
2022/06/01 05:09:47;;;;;;;5.30;2.17;;;13.60;91.70;;;;;;4203686;28;20118;-73
2022/06/01 05:11:49;;;;;;;2.95;1.80;;;13.80;91.70;;;;;;4201262;28;20057;-73
2022/06/01 05:13:51;;;;;;;2.80;2.25;;;13.80;91.60;;;;;;4198835;28;20095;-73
2022/06/01 05:15:55;;;;;;;2.92;1.88;;;13.80;91.50;;;;;;4198960;28;20071;-74
2022/06/01 05:17:57;;;;;;;2.63;1.80;;;13.90;91.50;;;;;;4193561;28;20057;-73
2022/06/01 05:19:59;;;;;;;4.57;1.88;;;14.00;91.30;;;;;;4190359;28;20053;-74
2022/06/01 05:22:01;;;;;;;2.80;2.03;;;14.00;91.20;;;;;;4192997;28;20091;-76
2022/06/01 05:24:04;;;;;;;2.15;1.90;;;14.10;91.10;;;;;;4190624;28;20212;-75
2022/06/01 05:26:05;;;;;;;5.78;2.00;;;14.20;91.00;;;;;;4190757;28;20878;-74
2022/06/01 05:28:07;;;;;;;3.60;2.15;;;14.20;91.20;;;;;;4198662;28;20810;-77
2022/06/01 05:30:09;;;;;;;2.90;1.88;;;14.30;91.30;;;;;;4196654;28;20059;-74
2022/06/01 05:32:11;;;;;;;2.70;1.90;;;14.30;91.10;;;;;;4195044;28;20053;-73
2022/06/01 05:34:13;;;;;;;3.13;1.70;;;14.40;90.90;;;;;;4201431;28;20060;-73
2022/06/01 05:36:16;;;;;;;2.90;1.90;;;14.50;90.80;;;;;;4198709;28;20757;-74
2022/06/01 05:38:18;;;;;;;3.28;1.70;;;14.50;90.90;;;;;;4196609;28;20732;-73
2022/06/01 05:40:20;;;;;;;3.13;1.67;;;14.50;90.60;;;;;;4198541;28;20061;-73
2022/06/01 05:42:21;;;;;;;1.50;1.30;;;14.50;90.50;;;;;;4197982;28;20056;-72
2022/06/01 05:44:23;;;;;;;2.80;1.83;;;14.60;90.70;;;;;;4195736;28;20102;-74
2022/06/01 05:46:26;;;;;;;4.80;1.70;;;14.70;90.70;;;;;;4204903;28;20670;-74
2022/06/01 05:48:28;;;;;;;2.10;1.70;;;14.70;91.00;;;;;;4199393;28;20064;-74
2022/06/01 05:50:32;;;;;;;7.05;1.42;;;14.70;90.40;;;;;;4210061;28;20331;-74
2022/06/01 05:52:38;;;;;;;2.05;1.80;;;14.70;90.30;;;;;;4206364;28;20061;-74
2022/06/01 05:54:40;;;;;;;5.05;1.90;;;14.80;90.30;;;;;;4197363;28;20108;-74
2022/06/01 05:56:41;;;;;;;3.85;1.58;;;14.90;90.30;;;;;;4193614;28;20095;-74
2022/06/01 05:58:43;;;;;;;3.05;1.70;;;14.90;90.30;;;;;;4193698;28;20092;-75
2022/06/01 06:00:47;;;;;;;7.63;2.95;;;15.10;90.30;;;;;;4188280;28;20059;-74
2022/06/01 06:02:49;;;;;;;3.10;1.67;;;15.10;90.20;;;;;;4185386;28;20168;-74
2022/06/01 06:04:51;;;;;;;5.72;1.48;;;15.20;89.60;;;;;;4193230;28;20058;-74
2022/06/01 06:06:52;;;;;;;4.88;2.08;;;15.30;89.50;;;;;;4183065;28;20061;-74
2022/06/01 06:09:00;;;;;;;1.98;1.52;;;15.40;89.50;;;;;;4184249;28;20068;-74
2022/06/01 06:11:03;;;;;;;1.83;1.55;;;15.60;88.60;;;;;;4182396;28;20081;-74
2022/06/01 06:13:05;;;;;;;2.28;1.85;;;15.70;88.20;;;;;;4185410;28;20057;-74
2022/06/01 06:15:07;;;;;;;2.33;1.20;;;15.80;87.40;;;;;;4185681;28;20176;-74
2022/06/01 06:17:08;;;;;;;2.90;1.50;;;15.80;87.40;;;;;;4183096;28;20876;-74
2022/06/01 06:19:12;;;;;;;6.70;1.80;;;15.90;86.80;;;;;;4184703;28;20061;-73
2022/06/01 06:21:14;;;;;;;2.83;1.40;;;16.00;86.10;;;;;;4186650;28;20699;-73
2022/06/01 06:23:15;;;;;;;1.88;1.33;;;16.10;85.90;;;;;;4184626;28;20127;-74
2022/06/01 06:25:17;;;;;;;1.40;1.30;;;16.30;84.80;;;;;;4186860;28;20057;-74
2022/06/01 06:27:19;;;;;;;2.78;1.42;;;16.40;84.90;;;;;;4185141;28;20061;-74
2022/06/01 06:29:20;;;;;;;2.22;1.88;;;16.40;83.70;;;;;;4189849;28;20966;-75
2022/06/01 06:31:22;;;;;;;2.28;1.70;;;16.50;84.10;;;;;;4192953;28;20072;-72
2022/06/01 06:33:24;;;;;;;2.67;1.40;;;16.60;84.20;;;;;;4190677;28;20068;-72
2022/06/01 06:35:26;;;;;;;1.55;1.42;;;16.70;83.60;;;;;;4188950;28;20901;-73
2022/06/01 06:37:28;;;;;;;1.30;1.20;;;16.80;82.60;;;;;;4186507;28;20057;-70
2022/06/01 06:39:30;;;;;;;3.70;1.73;;;16.80;82.30;;;;;;4191530;28;20664;-71
2022/06/01 06:41:32;;;;;;;2.55;1.67;;;16.80;81.70;;;;;;4192070;28;21343;-73
2022/06/01 06:43:35;;;;;;;2.85;1.55;;;16.80;81.70;;;;;;4192934;28;20057;-73
2022/06/01 06:45:37;;;;;;;1.75;1.48;;;16.90;82.10;;;;;;4193416;28;20056;-71
2022/06/01 06:47:40;;;;;;;1.40;1.20;;;17.00;82.40;;;;;;4190060;28;20064;-71
2022/06/01 06:49:42;;;;;;;5.13;1.83;;;17.10;81.50;;;;;;4193890;28;20067;-71
2022/06/01 06:51:44;;;;;;;4.55;1.30;;;17.20;81.20;;;;;;4193419;28;20614;-71
2022/06/01 06:53:45;;;;;;;1.67;1.58;;;17.20;80.80;;;;;;4188945;28;20063;-71
2022/06/01 06:55:48;;;;;;;4.25;1.55;;;17.20;80.60;;;;;;4189848;28;20152;-73
2022/06/01 06:57:49;;;;;;;1.60;1.20;;;17.30;80.40;;;;;;4191148;28;20159;-71
2022/06/01 06:59:51;;;;;;;1.73;1.40;;;17.30;80.50;;;;;;4190263;28;20045;-71
2022/06/01 07:01:53;;;;;;;1.30;1.20;;;17.30;79.50;;;;;;4192210;28;20068;-71
2022/06/01 07:03:54;;;;;;;1.80;1.35;;;17.30;79.20;;;;;;4190494;28;20836;-71
2022/06/01 07:06:09;;;;;;;1.63;1.40;;;17.30;79.80;;;;;;4186423;28;20163;-71
2022/06/01 07:08:10;;;;;;;5.50;1.83;;;17.30;80.30;;;;;;4184779;28;20061;-71
2022/06/01 07:10:12;;;;;;;1.08;1.05;;;17.30;80.20;;;;;;4192413;28;20069;-71
2022/06/01 07:12:14;;;;;;;1.38;1.27;;;17.30;79.90;;;;;;4189996;28;20559;-71
2022/06/01 07:14:15;;;;;;;1.33;1.20;;;17.40;80.40;;;;;;4189107;28;20083;-71
2022/06/01 07:16:24;;;;;;;2.05;1.10;;;17.60;80.10;;;;;;4189483;28;20110;-71
2022/06/01 07:18:26;;;;;;;1.40;1.23;;;17.60;78.90;;;;;;4191931;28;20057;-71
2022/06/01 07:20:28;;;;;;;1.65;1.55;;;17.60;79.20;;;;;;4187735;28;20101;-71
2022/06/01 07:22:30;;;;;;;1.52;1.42;;;17.70;79.30;;;;;;4186644;28;20053;-71
2022/06/01 07:24:31;;;;;;;3.80;1.20;;;17.80;79.50;;;;;;4188218;28;20069;-71
2022/06/01 07:26:38;;;;;;;2.10;1.52;;;17.90;78.60;;;;;;4180765;28;20057;-72
2022/06/01 07:28:40;;;;;;;1.30;1.20;;;18.00;78.80;;;;;;4183692;28;20084;-70
2022/06/01 07:30:42;;;;;;;2.15;1.40;;;18.10;78.30;;;;;;4184011;28;20803;-71
2022/06/01 07:32:47;;;;;;;2.97;1.08;;;18.20;77.40;;;;;;4187413;28;20776;-72
2022/06/01 07:34:49;;;;;;;2.42;1.38;;;18.40;76.30;;;;;;4182212;28;20053;-71
2022/06/01 07:36:50;;;;;;;1.55;1.13;;;18.60;75.40;;;;;;4180008;28;20167;-71
2022/06/01 07:43:56;;;;;;;1.75;0.95;;;18.60;74.70;;;;;;4179950;28;20615;-71
2022/06/01 07:45:58;;;;;;;3.70;1.25;;;18.60;73.70;;;;;;4187246;28;20932;-70
2022/06/01 07:47:59;;;;;;;4.38;1.30;;;18.60;72.40;;;;;;4186068;28;20139;-71
2022/06/01 07:50:21;;;;;;;1.10;1.00;;;18.50;71.10;;;;;;4191446;28;20128;-72
2022/06/01 07:52:43;;;;;;;1.13;1.02;;;18.40;69.60;;;;;;4200097;28;20060;-70
2022/06/01 07:54:48;;;;;;;4.57;1.70;;;18.30;68.10;;;;;;4200277;28;20204;-71
2022/06/01 07:56:50;;;;;;;1.25;1.10;;;18.30;66.10;;;;;;4182645;28;20084;-71
2022/06/01 07:58:51;;;;;;;1.65;1.10;;;18.20;66.60;;;;;;4189397;28;20057;-71
2022/06/01 08:00:53;;;;;;;4.82;1.30;;;18.30;67.30;;;;;;4189923;28;20159;-70
2022/06/01 08:02:55;;;;;;;1.73;1.60;;;18.30;67.70;;;;;;4190319;28;20215;-71
2022/06/01 08:04:57;;;;;;;1.05;0.95;;;18.40;67.20;;;;;;4188808;28;20064;-71
2022/06/01 08:06:58;;;;;;;5.30;0.95;;;18.30;67.10;;;;;;4190220;28;20072;-71
2022/06/01 08:09:01;;;;;;;1.00;0.80;;;18.50;66.60;;;;;;4188251;28;20053;-71
2022/06/01 08:11:03;;;;;;;3.88;1.02;;;18.50;65.60;;;;;;4190861;28;20108;-71
2022/06/01 08:13:10;;;;;;;1.30;0.93;;;18.70;66.00;;;;;;4189680;28;20065;-71
2022/06/01 08:15:13;;;;;;;2.10;0.82;;;18.70;64.00;;;;;;4187931;28;20697;-72
2022/06/01 08:17:20;;;;;;;2.53;1.02;;;18.80;64.00;;;;;;4190604;28;20130;-72
2022/06/01 08:19:22;;;;;;;1.95;0.90;;;19.00;61.00;;;;;;4188153;28;20060;-72
2022/06/01 08:21:24;;;;;;;1.00;0.60;;;19.00;60.00;;;;;;4191114;28;20057;-72
2022/06/01 08:23:30;;;;;;;2.95;0.70;;;19.00;58.00;;;;;;4191544;28;20061;-72
2022/06/01 08:25:32;;;;;;;1.17;0.80;;;19.20;57.60;;;;;;4190682;28;20061;-71
2022/06/01 08:27:34;;;;;;;2.47;1.00;;;19.20;58.20;;;;;;4186524;28;20053;-71
2022/06/01 08:29:37;;;;;;;3.60;0.88;;;19.30;58.30;;;;;;4192815;28;20064;-71
2022/06/01 08:31:39;;;;;;;2.50;1.10;;;19.40;58.30;;;;;;4193766;28;20053;-71
2022/06/01 08:33:41;;;;;;;1.98;0.98;;;19.40;57.30;;;;;;4185031;28;20065;-71
2022/06/01 08:35:47;;;;;;;1.42;1.00;;;19.50;58.60;;;;;;4186180;28;20196;-71
2022/06/01 08:37:50;;;;;;;2.28;1.00;;;19.40;58.50;;;;;;4193175;28;20057;-71
2022/06/01 08:39:51;;;;;;;1.25;0.75;;;19.40;59.30;;;;;;4185930;28;20037;-71
2022/06/01 08:41:55;;;;;;;5.93;0.80;;;19.40;58.70;;;;;;4186784;28;20203;-71
2022/06/01 08:44:01;;;;;;;3.17;1.08;;;19.50;58.50;;;;;;4191044;28;21166;-71
2022/06/01 08:46:03;;;;;;;1.80;0.90;;;19.60;58.30;;;;;;4187222;28;20065;-71
2022/06/01 08:48:06;;;;;;;7.43;1.10;;;19.70;57.20;;;;;;4185205;28;20800;-72
2022/06/01 08:50:18;;;;;;;2.40;0.82;;;19.80;57.30;;;;;;4184930;28;20057;-71
2022/06/01 08:52:22;;;;;;;0.63;0.50;;;19.80;55.50;;;;;;4185033;28;21044;-71
2022/06/01 08:54:24;;;;;;;1.77;0.50;;;19.80;54.60;;;;;;4188346;28;20060;-71
2022/06/01 08:56:40;;;;;;;0.60;0.50;;;20.00;54.20;;;;;;4196617;28;20056;-70
2022/06/01 08:59:06;;;;;;;1.20;0.70;;;20.10;53.30;;;;;;4195035;28;20168;-72
2022/06/01 09:01:47;;;;;;;1.13;0.80;;;20.20;52.10;;;;;;4192116;28;20044;-72
2022/06/01 09:03:52;;;;;;;5.05;0.85;;;20.30;52.20;;;;;;4162231;28;20048;-71
2022/06/01 09:06:04;;;;;;;1.17;0.40;;;20.60;52.90;;;;;;4191315;28;20157;-72
2022/06/01 09:08:29;;;;;;;0.55;0.50;;;20.80;52.50;;;;;;4193191;28;20144;-72
2022/06/01 09:10:40;;;;;;;0.73;0.63;;;21.00;52.30;;;;;;4195336;28;20180;-71
2022/06/01 09:12:44;;;;;;;4.82;0.80;;;20.80;51.00;;;;;;4190019;28;20061;-72
2022/06/01 09:14:51;;;;;;;0.75;0.70;;;20.50;50.50;;;;;;4192082;28;20182;-72
2022/06/01 09:16:55;;;;;;;0.65;0.50;;;20.20;50.20;;;;;;4190248;28;20195;-72
2022/06/01 09:18:59;;;;;;;0.93;0.55;;;20.00;50.80;;;;;;4190482;28;20127;-71
2022/06/01 09:23:23;;;;;;;0.77;0.70;;;19.70;50.20;;;;;;4193013;28;20075;-72
2022/06/01 09:25:38;;;;;;;3.03;1.60;;;19.60;50.80;;;;;;4190415;28;20147;-71
2022/06/01 09:27:47;;;;;;;2.30;1.92;;;19.50;51.60;;;;;;4190841;28;20071;-72
2022/06/01 09:29:52;;;;;;;4.75;1.45;;;19.50;51.90;;;;;;4189018;28;20069;-72
2022/06/01 09:32:02;;;;;;;2.45;1.88;;;19.50;52.80;;;;;;4187263;28;20062;-72
2022/06/01 09:34:14;;;;;;;;;;;19.60;51.30;;;;;;4191748;28;20053;-72
2022/06/01 09:36:27;;;;;;;1.60;1.10;;;19.60;50.10;;;;;;4188799;28;19939;-72
2022/06/01 09:38:47;;;;;;;0.80;0.63;;;19.70;51.20;;;;;;4190717;28;20061;-72
2022/06/01 09:41:06;;;;;;;2.23;1.27;;;19.90;51.50;;;;;;4200018;28;20061;-72
2022/06/01 09:43:22;;;;;;;2.42;1.70;;;19.90;50.30;;;;;;4186758;28;20780;-71
2022/06/01 09:45:25;;;;;;;2.13;0.80;;;19.90;50.00;;;;;;4189465;28;20093;-72
2022/06/01 09:47:33;;;;;;;0.88;0.65;;;19.90;50.10;;;;;;4185934;28;20061;-71
2022/06/01 09:49:42;;;;;;;5.38;2.75;;;19.90;50.10;;;;;;4189126;28;20068;-72
2022/06/01 09:51:46;;;;;;;1.73;1.00;;;20.00;50.40;;;;;;4186592;28;20049;-72
2022/06/01 09:54:07;;;;;;;3.22;1.42;;;20.00;50.90;;;;;;4183706;28;20160;-71
2022/06/01 09:56:10;;;;;;;1.63;0.80;;;20.10;50.40;;;;;;4183124;28;20705;-72
2022/06/01 10:06:05;;;;;;;4.40;2.22;;;20.20;50.90;;;;;;4190140;28;20063;-72
2022/06/01 10:06:20;;;;;;;2.95;1.15;;;20.00;50.00;;;;;;4155452;28;20120;-72
2022/06/01 10:08:31;;;;;;;2.35;1.08;;;19.80;49.50;;;;;;4160942;28;20057;-72
2022/06/01 10:10:32;;;;;;;4.13;1.50;;;19.80;49.10;;;;;;4184826;28;20179;-72
2022/06/01 10:12:42;;;;;;;0.80;0.80;;;19.80;50.20;;;;;;4185265;28;20068;-72
2022/06/01 10:14:54;;;;;;;2.08;1.33;;;19.80;49.40;;;;;;4188099;28;20049;-72
2022/06/01 10:17:09;;;;;;;5.25;2.13;;;19.90;48.30;;;;;;4190279;28;20061;-72
2022/06/01 10:19:14;;;;;;;1.30;1.10;;;19.90;48.70;;;;;;4186435;28;20255;-71
2022/06/01 10:21:24;;;;;;;1.67;0.73;;;19.80;48.30;;;;;;4187459;28;20239;-72
2022/06/01 10:23:53;;;;;;;0.40;0.40;;;19.90;48.20;;;;;;4189435;28;20061;-71
2022/06/01 10:26:19;;;;;;;0.57;0.57;;;20.00;48.10;;;;;;4189162;28;20068;-71
2022/06/01 10:28:41;;;;;;;1.27;0.57;;;20.00;48.30;;;;;;4180672;28;20291;-72
2022/06/01 10:30:50;;;;;;;1.92;0.77;;;20.20;47.10;;;;;;4189026;28;20185;-71
2022/06/01 10:32:58;;;;;;;4.32;1.00;;;20.40;46.80;;;;;;4188960;28;20120;-72
2022/06/01 10:35:33;;;;;;;0.70;0.60;;;20.60;47.80;;;;;;4190329;28;20060;-73
2022/06/01 10:38:08;;;;;;;1.85;0.50;;;20.60;47.10;;;;;;4191331;28;20057;-71
2022/06/01 10:40:19;;;;;;;0.47;0.47;;;20.40;46.90;;;;;;4180284;28;20847;-71
2022/06/01 10:45:12;;;;;;;1.02;0.50;;;20.40;48.50;;;;;;4221752;22;20052;-72
2022/06/01 10:47:54;;;;;;;2.08;0.63;;;20.50;47.00;;;;;;4212076;28;20061;-72
2022/06/01 10:50:07;;;;;;;0.60;0.50;;;20.60;45.90;;;;;;4207725;28;20147;-72
2022/06/01 10:52:39;;;;;;;0.63;0.60;;;20.80;47.60;;;;;;4208210;28;20063;-72
2022/06/01 10:54:50;;;;;;;2.15;1.23;;;20.80;45.90;;;;;;4203341;28;20064;-72
2022/06/01 10:56:51;;;;;;;1.38;0.60;;;20.70;46.50;;;;;;4208419;28;20156;-73
2022/06/01 10:58:59;;;;;;;2.15;0.77;;;20.70;47.40;;;;;;4205607;28;20056;-72
2022/06/01 11:01:01;;;;;;;0.98;0.80;;;20.80;48.00;;;;;;4208618;28;20053;-73
2022/06/01 11:03:20;;;;;;;3.60;0.60;;;21.00;47.10;;;;;;4202121;28;20064;-72
2022/06/01 11:05:36;;;;;;;1.17;0.43;;;21.10;45.20;;;;;;4209656;28;20742;-73
2022/06/01 11:08:15;;;;;;;2.63;0.52;;;21.10;45.30;;;;;;4200423;28;20064;-72
2022/06/01 11:10:41;;;;;;;0.75;0.60;;;21.20;43.40;;;;;;4207320;28;20180;-72
2022/06/01 11:13:07;;;;;;;1.30;0.57;;;21.20;43.20;;;;;;4207142;28;20067;-72
2022/06/01 11:15:24;;;;;;;1.17;0.50;;;21.30;43.60;;;;;;4199054;28;20176;-73
2022/06/01 11:17:48;;;;;;;1.17;0.40;;;21.40;43.40;;;;;;4207377;28;20100;-73